createdAt,value
2019-01-16T00:01:05.583Z,1.43
2019-01-16T00:03:43.509Z,3.30
2019-01-16T00:06:21.949Z,2.33
2019-01-16T00:09:09.609Z,1.03
2019-01-16T00:12:01.475Z,1.07
2019-01-16T00:20:11.334Z,4.90
2019-01-16T00:22:58.779Z,4.50
2019-01-16T00:25:45.835Z,8.33
2019-01-16T00:28:36.441Z,15.80
2019-01-16T00:31:28.432Z,16.63
2019-01-16T00:34:03.819Z,6.47
2019-01-16T00:36:55.384Z,11.27
2019-01-16T00:39:33.557Z,4.57
2019-01-16T00:42:24.838Z,13.20
2019-01-16T00:45:02.814Z,9.57
2019-01-16T00:47:43.966Z,12.57
2019-01-16T00:50:22.472Z,12.30
2019-01-16T00:52:57.753Z,15.13
2019-01-16T00:55:53.400Z,18.60
2019-01-16T00:58:28.709Z,18.93
2019-01-16T01:01:04.053Z,10.43
2019-01-16T01:04:01.687Z,20.20
2019-01-16T01:06:45.001Z,19.03
2019-01-16T01:09:39.987Z,22.13
2019-01-16T01:12:15.323Z,20.90
2019-01-16T01:14:59.724Z,19.67
2019-01-16T01:17:46.809Z,24.33
2019-01-16T01:20:34.204Z,18.27
2019-01-16T01:23:12.506Z,25.57
2019-01-16T01:26:07.189Z,28.73
2019-01-16T01:28:44.964Z,26.20
2019-01-16T01:31:34.919Z,33.57
2019-01-16T01:34:27.334Z,22.90
2019-01-16T01:37:18.345Z,30.40
2019-01-16T01:40:06.613Z,20.63
2019-01-16T01:42:44.976Z,30.20
2019-01-16T01:48:17.392Z,23.80
2019-01-16T01:51:15.193Z,29.17
2019-01-16T01:54:02.405Z,19.37
2019-01-16T01:59:43.960Z,27.73
2019-01-16T02:02:21.987Z,22.30
2019-01-16T02:04:57.227Z,25.57
2019-01-16T02:10:35.589Z,24.27
2019-01-16T02:13:37.916Z,25.50
2019-01-16T02:16:13.234Z,23.20
2019-01-16T02:18:51.248Z,23.20
2019-01-16T02:21:32.718Z,15.90
2019-01-16T02:27:10.769Z,20.13
2019-01-16T02:29:49.082Z,32.53
2019-01-16T02:32:47.100Z,21.70
2019-01-16T02:35:39.848Z,28.33
2019-01-16T02:38:17.924Z,24.60
2019-01-16T02:40:53.224Z,25.10
2019-01-16T02:43:58.841Z,34.57
2019-01-16T02:46:49.404Z,24.73
2019-01-16T02:49:30.386Z,27.47
2019-01-16T02:52:15.127Z,24.93
2019-01-16T02:54:59.512Z,26.53
2019-01-16T02:58:08.336Z,27.37
2019-01-16T03:00:58.794Z,27.03
2019-01-16T03:04:02.487Z,17.73
2019-01-16T03:06:40.622Z,15.87
2019-01-16T03:09:15.904Z,25.97
2019-01-16T03:12:09.625Z,18.80
2019-01-16T03:14:44.979Z,25.03
2019-01-16T03:20:27.797Z,22.30
2019-01-16T03:23:03.104Z,25.03
2019-01-16T03:25:44.450Z,16.93
2019-01-16T03:28:31.957Z,15.97
2019-01-16T03:31:07.321Z,19.20
2019-01-16T03:33:51.650Z,20.07
2019-01-16T03:36:29.681Z,13.00
2019-01-16T03:39:08.249Z,21.23
2019-01-16T03:41:50.797Z,17.27
2019-01-16T03:44:29.077Z,21.57
2019-01-16T03:47:10.511Z,20.23
2019-01-16T03:49:48.423Z,18.87
2019-01-16T03:52:23.824Z,16.47
2019-01-16T03:55:11.126Z,20.57
2019-01-16T03:57:58.761Z,19.17
2019-01-16T04:00:43.135Z,17.67
2019-01-16T04:03:21.278Z,9.13
2019-01-16T04:06:11.679Z,17.27
2019-01-16T04:08:49.768Z,11.50
2019-01-16T04:14:17.677Z,20.10
2019-01-16T04:19:49.892Z,18.67
2019-01-16T04:22:31.956Z,12.43
2019-01-16T04:25:27.655Z,11.73
2019-01-16T04:28:19.264Z,12.57
2019-01-16T04:31:13.006Z,13.30
2019-01-16T04:33:51.390Z,18.97
2019-01-16T04:36:46.240Z,15.30
2019-01-16T04:39:21.573Z,13.53
2019-01-16T04:42:13.673Z,17.73
2019-01-16T04:45:01.227Z,20.53
2019-01-16T04:47:54.512Z,15.03
2019-01-16T04:50:56.868Z,20.50
2019-01-16T04:53:36.150Z,16.40
2019-01-16T04:56:14.377Z,22.00
2019-01-16T04:58:49.607Z,12.90
2019-01-16T05:01:30.983Z,16.50
2019-01-16T05:04:34.493Z,17.93
2019-01-16T05:07:12.636Z,17.73
2019-01-16T05:09:48.950Z,16.07
2019-01-16T05:12:30.862Z,16.67
2019-01-16T05:21:04.424Z,18.67
2019-01-16T05:23:39.703Z,12.27
2019-01-16T05:26:33.439Z,16.27
2019-01-16T05:29:15.902Z,12.23
2019-01-16T05:31:54.126Z,15.53
2019-01-16T05:34:29.395Z,18.10
2019-01-16T05:37:13.522Z,12.97
2019-01-16T05:39:48.889Z,18.90
2019-01-16T05:42:26.622Z,20.70
2019-01-16T05:45:13.926Z,17.30
2019-01-16T05:48:05.579Z,19.53
2019-01-16T05:50:47.280Z,24.63
2019-01-16T05:53:25.263Z,18.83
2019-01-16T05:56:17.999Z,18.03
2019-01-16T05:59:09.410Z,19.27
2019-01-16T06:01:47.524Z,16.53
2019-01-16T06:04:31.891Z,20.70
2019-01-16T06:07:27.512Z,21.13
2019-01-16T06:10:19.003Z,20.10
2019-01-16T06:13:06.346Z,18.43
2019-01-16T06:15:44.457Z,21.57
2019-01-16T06:18:36.047Z,23.57
2019-01-16T06:21:11.351Z,18.00
2019-01-16T06:23:52.519Z,23.33
2019-01-16T06:26:47.400Z,20.47
2019-01-16T06:35:07.645Z,18.07
2019-01-16T06:37:52.372Z,21.70
2019-01-16T06:40:30.505Z,22.20
2019-01-16T06:43:05.840Z,20.07
2019-01-16T06:45:47.790Z,18.53
2019-01-16T06:48:41.379Z,19.23
2019-01-16T06:54:20.807Z,19.67
2019-01-16T06:57:19.840Z,20.47
2019-01-16T07:00:13.623Z,18.93
2019-01-16T07:02:57.738Z,20.70
2019-01-16T07:05:49.444Z,19.80
2019-01-16T07:08:24.757Z,18.93
2019-01-16T07:11:09.258Z,18.27
2019-01-16T07:13:44.543Z,23.23
2019-01-16T07:16:43.927Z,18.73
2019-01-16T07:19:26.481Z,20.87
2019-01-16T07:22:19.874Z,18.87
2019-01-16T07:25:11.734Z,19.43
2019-01-16T07:30:55.998Z,16.83
2019-01-16T07:33:34.340Z,20.17
2019-01-16T07:36:12.662Z,18.53
2019-01-16T07:38:51.042Z,17.27
2019-01-16T07:41:29.049Z,18.93
2019-01-16T07:44:25.431Z,24.63
2019-01-16T07:47:07.784Z,20.90
2019-01-16T07:52:55.050Z,21.57
2019-01-16T07:55:48.608Z,19.90
2019-01-16T07:58:26.688Z,21.33
2019-01-16T08:01:05.021Z,19.43
2019-01-16T08:03:55.458Z,24.33
2019-01-16T08:06:42.951Z,19.63
2019-01-16T08:09:35.801Z,21.40
2019-01-16T08:12:11.195Z,26.33
2019-01-16T08:14:58.499Z,23.10
2019-01-16T08:17:40.104Z,23.10
2019-01-16T08:20:30.770Z,21.53
2019-01-16T08:23:08.664Z,23.07
2019-01-16T08:28:53.163Z,26.43
2019-01-16T08:31:46.417Z,25.07
2019-01-16T08:34:37.132Z,20.30
2019-01-16T08:37:12.479Z,24.33
2019-01-16T08:39:50.269Z,20.53
2019-01-16T08:42:28.828Z,27.17
2019-01-16T08:45:04.063Z,20.87
2019-01-16T08:47:54.411Z,24.47
2019-01-16T08:50:41.893Z,24.03
2019-01-16T08:53:33.282Z,22.33
2019-01-16T08:56:35.427Z,21.37
2019-01-16T08:59:17.601Z,21.53
2019-01-16T09:02:09.527Z,20.90
2019-01-16T09:04:47.558Z,24.60
2019-01-16T09:07:35.178Z,23.93
2019-01-16T09:10:41.829Z,20.73
2019-01-16T09:13:44.062Z,20.63
2019-01-16T09:16:38.539Z,22.87
2019-01-16T09:19:13.945Z,22.33
2019-01-16T09:21:49.197Z,22.70
2019-01-16T09:24:30.952Z,19.03
2019-01-16T09:27:09.039Z,23.53
2019-01-16T09:30:00.718Z,22.70
2019-01-16T09:32:59.848Z,23.57
2019-01-16T09:35:38.208Z,21.30
2019-01-16T09:38:16.425Z,24.33
2019-01-16T09:40:51.670Z,26.83
2019-01-16T09:43:26.911Z,22.87
2019-01-16T09:46:05.360Z,25.10
2019-01-16T09:48:46.179Z,25.03
2019-01-16T09:51:30.866Z,27.93
2019-01-16T09:54:15.430Z,28.23
2019-01-16T09:59:51.329Z,28.53
2019-01-16T10:02:43.348Z,30.80
2019-01-16T10:05:18.657Z,28.77
2019-01-16T10:08:21.164Z,29.70
2019-01-16T10:11:12.704Z,33.67
2019-01-16T10:14:04.045Z,36.33
2019-01-16T10:16:39.409Z,35.67
2019-01-16T10:22:18.581Z,39.70
2019-01-16T10:24:56.596Z,34.33
2019-01-16T10:27:50.028Z,37.20
2019-01-16T10:30:42.161Z,34.40
2019-01-16T10:33:26.808Z,36.90
2019-01-16T10:39:08.395Z,38.97
2019-01-16T10:42:02.103Z,37.37
2019-01-16T10:44:44.223Z,39.60
2019-01-16T10:47:36.173Z,36.90
2019-01-16T10:53:13.162Z,38.90
2019-01-16T10:55:54.206Z,39.17
2019-01-16T10:58:41.875Z,36.30
2019-01-16T11:01:35.083Z,38.73
2019-01-16T11:04:13.188Z,38.03
2019-01-16T11:07:12.801Z,36.20
2019-01-16T11:10:06.284Z,33.20
2019-01-16T11:12:56.541Z,31.17
2019-01-16T11:15:34.713Z,35.93
2019-01-16T11:18:26.485Z,35.23
2019-01-16T11:21:02.157Z,32.57
2019-01-16T11:23:37.542Z,33.13
2019-01-16T11:26:22.097Z,31.03
2019-01-16T11:29:23.357Z,30.53
2019-01-16T11:32:15.915Z,32.03
2019-01-16T11:35:06.188Z,31.37
2019-01-16T11:37:59.550Z,31.40
2019-01-16T11:40:46.640Z,30.93
2019-01-16T11:43:21.975Z,33.07
2019-01-16T11:46:12.435Z,32.30
2019-01-16T11:48:57.135Z,29.63
2019-01-16T11:51:47.527Z,31.30
2019-01-16T11:54:34.731Z,28.03
2019-01-16T11:57:12.756Z,27.27
2019-01-16T12:00:00.253Z,28.57
2019-01-16T12:02:50.958Z,30.73
2019-01-16T12:05:54.923Z,31.67
2019-01-16T12:08:30.335Z,27.00
2019-01-16T12:11:14.788Z,28.53
2019-01-16T12:13:53.242Z,27.40
2019-01-16T12:16:47.083Z,26.03
2019-01-16T12:19:22.426Z,22.77
2019-01-16T12:22:00.675Z,24.83
2019-01-16T12:24:35.987Z,26.23
2019-01-16T12:27:11.351Z,23.50
2019-01-16T12:29:52.422Z,25.47
2019-01-16T12:32:30.295Z,23.87
2019-01-16T12:35:25.902Z,25.53
2019-01-16T12:38:16.294Z,24.10
2019-01-16T12:41:09.722Z,25.67
2019-01-16T12:46:59.319Z,25.93
2019-01-16T12:49:41.631Z,23.67
2019-01-16T12:52:19.454Z,22.30
2019-01-16T12:57:50.014Z,36.77
2019-01-16T13:00:49.981Z,21.73
2019-01-16T13:03:28.046Z,23.50
2019-01-16T13:06:06.335Z,24.73
2019-01-16T13:08:41.585Z,21.30
2019-01-16T13:11:19.709Z,22.87
2019-01-16T13:14:11.198Z,20.70
2019-01-16T13:16:49.315Z,22.47
2019-01-16T13:19:27.327Z,20.57
2019-01-16T13:22:02.734Z,20.77
2019-01-16T13:24:47.322Z,19.47
2019-01-16T13:27:31.680Z,18.97
2019-01-16T13:30:10.619Z,19.97
2019-01-16T13:33:01.120Z,22.13
2019-01-16T13:35:54.558Z,20.93
2019-01-16T13:38:48.038Z,22.00
2019-01-16T13:41:45.351Z,19.20
2019-01-16T13:50:20.224Z,22.53
2019-01-16T13:53:07.646Z,17.03
2019-01-16T13:55:52.376Z,15.83
2019-01-16T13:58:47.753Z,17.63
2019-01-16T14:04:21.777Z,17.23
2019-01-16T14:06:59.872Z,16.50
2019-01-16T14:10:01.115Z,15.17
2019-01-16T14:15:32.087Z,12.93
2019-01-16T14:18:07.814Z,15.23
2019-01-16T14:20:43.124Z,13.93
2019-01-16T14:23:30.591Z,11.23
2019-01-16T14:26:18.783Z,15.93
2019-01-16T14:28:57.063Z,14.30
2019-01-16T14:31:32.319Z,15.70
2019-01-16T14:34:13.815Z,16.40
2019-01-16T14:37:03.958Z,13.73
2019-01-16T14:39:41.956Z,17.87
2019-01-16T14:42:40.092Z,14.30
2019-01-16T14:45:18.250Z,14.23
2019-01-16T14:48:20.752Z,14.47
2019-01-16T14:51:08.373Z,16.07
2019-01-16T14:53:49.513Z,10.17
2019-01-16T14:56:30.480Z,15.60
2019-01-16T14:59:20.509Z,15.67
2019-01-16T15:01:58.356Z,13.63
2019-01-16T15:04:52.858Z,15.00
2019-01-16T15:07:30.728Z,14.83
2019-01-16T15:10:19.308Z,14.33
2019-01-16T15:13:10.008Z,15.40
2019-01-16T15:15:57.346Z,16.30
2019-01-16T15:18:38.908Z,16.07
2019-01-16T15:21:14.296Z,16.10
2019-01-16T15:26:55.486Z,13.53
2019-01-16T15:29:33.668Z,16.00
2019-01-16T15:32:08.990Z,18.23
2019-01-16T15:34:44.384Z,17.33
2019-01-16T15:37:35.140Z,15.47
2019-01-16T15:40:17.057Z,14.50
2019-01-16T15:43:20.315Z,16.73
2019-01-16T15:46:14.076Z,17.23
2019-01-16T15:48:55.502Z,18.57
2019-01-16T15:51:51.330Z,16.23
2019-01-16T15:54:33.923Z,13.23
2019-01-16T16:00:11.905Z,15.20
2019-01-16T16:03:08.385Z,14.43
2019-01-16T16:05:49.390Z,16.93
2019-01-16T16:08:27.105Z,14.37
2019-01-16T16:11:11.780Z,14.50
2019-01-16T16:13:55.962Z,14.43
2019-01-16T16:16:31.344Z,14.60
2019-01-16T16:22:07.456Z,13.80
2019-01-16T16:24:42.790Z,13.70
2019-01-16T16:27:18.085Z,11.57
2019-01-16T16:30:02.301Z,12.63
2019-01-16T16:32:40.257Z,14.00
2019-01-16T16:35:18.372Z,14.97
2019-01-16T16:37:56.654Z,12.83
2019-01-16T16:43:27.052Z,11.30
2019-01-16T16:46:14.354Z,11.13
2019-01-16T16:48:55.900Z,12.00
2019-01-16T16:51:56.758Z,11.30
2019-01-16T16:54:32.055Z,12.00
2019-01-16T16:57:13.556Z,10.53
2019-01-16T17:00:03.972Z,9.50
2019-01-16T17:02:39.779Z,10.23
2019-01-16T17:05:15.130Z,10.60
2019-01-16T17:08:02.646Z,10.23
2019-01-16T17:11:07.729Z,12.73
2019-01-16T17:13:57.635Z,8.50
2019-01-16T17:16:47.821Z,9.60
2019-01-16T17:22:12.652Z,9.07
2019-01-16T17:24:51.098Z,9.43
2019-01-16T17:27:35.499Z,9.77
2019-01-16T17:30:34.491Z,10.67
2019-01-16T17:33:09.802Z,8.63
2019-01-16T17:36:00.343Z,11.23
2019-01-16T17:38:35.643Z,9.80
2019-01-16T17:41:23.805Z,10.27
2019-01-16T17:44:01.935Z,12.93
2019-01-16T17:47:05.439Z,11.97
2019-01-16T17:49:43.312Z,10.93
2019-01-16T17:52:38.836Z,13.80
2019-01-16T17:55:13.064Z,13.60
2019-01-16T17:57:48.796Z,15.77
2019-01-16T18:00:30.048Z,15.90
2019-01-16T18:03:14.618Z,16.07
2019-01-16T18:06:01.882Z,12.37
2019-01-16T18:11:34.316Z,18.83
2019-01-16T18:14:09.724Z,16.27
2019-01-16T18:17:01.253Z,20.57
2019-01-16T18:19:39.078Z,19.87
2019-01-16T18:22:14.458Z,18.20
2019-01-16T18:24:56.972Z,21.73
2019-01-16T18:28:19.764Z,21.77
2019-01-16T18:31:26.126Z,23.17
2019-01-16T18:34:06.806Z,23.93
2019-01-16T18:39:29.902Z,21.10
2019-01-16T18:42:26.214Z,23.77
2019-01-16T18:45:04.567Z,22.00
2019-01-16T18:47:42.444Z,28.40
2019-01-16T18:50:17.835Z,19.03
2019-01-16T18:52:53.169Z,26.93
2019-01-16T18:58:29.024Z,26.70
2019-01-16T19:01:11.179Z,30.17
2019-01-16T19:04:04.211Z,25.57
2019-01-16T19:06:46.512Z,23.83
2019-01-16T19:09:27.562Z,25.20
2019-01-16T19:12:19.304Z,21.90
2019-01-16T19:15:15.638Z,19.63
2019-01-16T19:17:53.857Z,23.50
2019-01-16T19:20:40.365Z,27.73
2019-01-16T19:23:15.775Z,26.63
2019-01-16T19:25:58.173Z,27.30
2019-01-16T19:28:45.687Z,24.40
2019-01-16T19:31:37.699Z,28.97
2019-01-16T19:34:13.036Z,20.60
2019-01-16T19:36:48.342Z,21.63
2019-01-16T19:39:41.762Z,28.73
2019-01-16T19:42:17.156Z,23.90
2019-01-16T19:45:07.867Z,27.70
2019-01-16T19:47:43.294Z,23.00
2019-01-16T19:50:36.785Z,28.33
2019-01-16T19:53:27.612Z,31.33
2019-01-16T19:56:22.099Z,29.70
2019-01-16T19:58:57.368Z,31.00
2019-01-16T20:01:49.204Z,31.03
2019-01-16T20:04:45.393Z,19.70
2019-01-16T20:07:37.239Z,33.57
2019-01-16T20:10:13.940Z,32.93
2019-01-16T20:12:52.089Z,28.57
2019-01-16T20:15:44.803Z,23.60
2019-01-16T20:18:20.200Z,30.87
2019-01-16T20:21:08.540Z,30.50
2019-01-16T20:23:43.868Z,30.47
2019-01-16T20:26:28.248Z,27.23
2019-01-16T20:29:26.001Z,31.33
2019-01-16T20:35:10.547Z,24.37
2019-01-16T20:37:52.108Z,20.90
2019-01-16T20:40:51.482Z,31.70
2019-01-16T20:43:43.460Z,30.40
2019-01-16T20:46:18.843Z,28.17
2019-01-16T20:49:00.311Z,28.80
2019-01-16T20:51:53.630Z,28.20
2019-01-16T20:54:34.847Z,30.00
2019-01-16T20:57:34.343Z,24.63
2019-01-16T21:00:38.536Z,30.70
2019-01-16T21:03:13.856Z,18.30
2019-01-16T21:05:55.421Z,25.40
2019-01-16T21:08:30.726Z,23.37
2019-01-16T21:11:06.220Z,23.87
2019-01-16T21:13:47.394Z,21.23
2019-01-16T21:16:22.744Z,21.67
2019-01-16T21:18:58.047Z,23.90
2019-01-16T21:21:45.397Z,24.03
2019-01-16T21:24:36.779Z,26.87
2019-01-16T21:27:15.053Z,24.33
2019-01-16T21:30:02.766Z,23.53
2019-01-16T21:32:44.215Z,25.30
2019-01-16T21:35:25.903Z,22.03
2019-01-16T21:38:12.912Z,20.30
2019-01-16T21:40:48.221Z,27.07
2019-01-16T21:43:44.335Z,24.20
2019-01-16T21:46:42.524Z,19.63
2019-01-16T21:49:30.278Z,22.57
2019-01-16T21:52:08.570Z,28.80
2019-01-16T21:54:43.911Z,25.17
2019-01-16T21:57:35.759Z,27.60
2019-01-16T22:00:20.503Z,24.97
2019-01-16T22:03:01.955Z,27.27
2019-01-16T22:05:37.371Z,29.93
2019-01-16T22:08:12.759Z,31.20
2019-01-16T22:10:48.153Z,39.93
2019-01-16T22:13:38.610Z,34.57
2019-01-16T22:16:38.003Z,23.80
2019-01-16T22:19:13.308Z,36.93
2019-01-16T22:21:57.507Z,26.63
2019-01-16T22:24:47.667Z,31.43
2019-01-16T22:33:22.042Z,31.17
2019-01-16T22:36:04.463Z,26.47
2019-01-16T22:39:01.302Z,33.30
2019-01-16T22:41:43.398Z,32.80
2019-01-16T22:44:18.702Z,24.83
2019-01-16T22:47:22.059Z,26.50
2019-01-16T22:50:09.423Z,25.23
2019-01-16T22:53:01.282Z,31.53
2019-01-16T22:55:36.666Z,20.27
2019-01-16T22:58:20.660Z,26.60
2019-01-16T23:01:03.557Z,33.43
2019-01-16T23:03:41.582Z,27.87
2019-01-16T23:06:33.242Z,34.83
2019-01-16T23:09:26.958Z,30.90
2019-01-16T23:12:22.015Z,33.17
2019-01-16T23:14:57.278Z,20.03
2019-01-16T23:17:55.304Z,26.73
2019-01-16T23:20:30.635Z,20.67
2019-01-16T23:23:21.420Z,27.53
2019-01-16T23:26:14.927Z,31.57
2019-01-16T23:29:06.815Z,19.90
2019-01-16T23:34:51.322Z,29.97
2019-01-16T23:37:47.809Z,25.27
2019-01-16T23:40:23.090Z,31.77
2019-01-16T23:42:58.368Z,29.37
2019-01-16T23:45:45.638Z,26.57
2019-01-16T23:48:23.769Z,19.67
2019-01-16T23:50:59.075Z,28.97
2019-01-16T23:56:46.138Z,19.67
2019-01-16T23:59:21.453Z,23.77
